Copper Creek, Canada
Current Conditions -  °F | °C
As of 8:00 AM on Saturday 22 Nov 2014 (Local Time) from CYKA Reporting Station
Few Clouds Few Clouds  
Wind Chill: 28°   Ceiling: Unl
Heat Index: 34°   Visibility: 40mi
Dew Point: 32°   Wind: 7mph
Humidity: 93%   Direction: 270°W
Pressure: 29.5"   Gusts: NA
Location:  50.8°N, 120.76°W
Report Text: CYKA 221600Z 27006KT 40SM FEW015 FEW060 FEW150 01/00 A2950 RMK SF1SC1AC1 SF TR SLP003
Loading
Personal Weather Stations






























Interactive Weather Map New forecast layout! Learn more

10-Day Weather Forecast

Advertisements
Track Severe Weather on mobile